sensor_id;sensor_type;location;lat;lon;timestamp;P1;durP1;ratioP1;P2;durP2;ratioP2
78989;SDS011;68390;52.130;21.218;2023-12-07T00:01:03;50.42;;;18.38;;
78989;SDS011;68390;52.130;21.218;2023-12-07T00:03:28;50.38;;;17.48;;
78989;SDS011;68390;52.130;21.218;2023-12-07T00:05:53;49.13;;;19.07;;
78989;SDS011;68390;52.130;21.218;2023-12-07T00:08:19;47.35;;;18.60;;
78989;SDS011;68390;52.130;21.218;2023-12-07T00:10:44;49.23;;;17.57;;
78989;SDS011;68390;52.130;21.218;2023-12-07T00:13:10;45.85;;;17.25;;
78989;SDS011;68390;52.130;21.218;2023-12-07T00:15:36;58.63;;;19.90;;
78989;SDS011;68390;52.130;21.218;2023-12-07T00:18:01;53.10;;;20.27;;
78989;SDS011;68390;52.130;21.218;2023-12-07T00:20:28;56.40;;;20.17;;
78989;SDS011;68390;52.130;21.218;2023-12-07T00:22:54;56.65;;;19.08;;
78989;SDS011;68390;52.130;21.218;2023-12-07T00:25:19;54.50;;;18.83;;
78989;SDS011;68390;52.130;21.218;2023-12-07T00:27:45;60.03;;;20.80;;
78989;SDS011;68390;52.130;21.218;2023-12-07T00:30:10;47.05;;;18.20;;
78989;SDS011;68390;52.130;21.218;2023-12-07T00:32:36;74.05;;;24.92;;
78989;SDS011;68390;52.130;21.218;2023-12-07T00:35:01;66.20;;;22.73;;
78989;SDS011;68390;52.130;21.218;2023-12-07T00:37:27;62.95;;;22.05;;
78989;SDS011;68390;52.130;21.218;2023-12-07T00:39:52;79.53;;;22.03;;
78989;SDS011;68390;52.130;21.218;2023-12-07T00:42:17;68.90;;;22.88;;
78989;SDS011;68390;52.130;21.218;2023-12-07T00:44:43;66.53;;;21.27;;
78989;SDS011;68390;52.130;21.218;2023-12-07T00:47:08;64.40;;;19.92;;
78989;SDS011;68390;52.130;21.218;2023-12-07T00:49:37;70.05;;;21.30;;
78989;SDS011;68390;52.130;21.218;2023-12-07T00:52:04;54.47;;;20.70;;
78989;SDS011;68390;52.130;21.218;2023-12-07T00:54:29;65.57;;;19.70;;
78989;SDS011;68390;52.130;21.218;2023-12-07T00:56:55;59.95;;;19.52;;
78989;SDS011;68390;52.130;21.218;2023-12-07T00:59:20;49.47;;;18.00;;
78989;SDS011;68390;52.130;21.218;2023-12-07T01:01:45;51.50;;;17.53;;
78989;SDS011;68390;52.130;21.218;2023-12-07T01:04:11;52.67;;;18.57;;
78989;SDS011;68390;52.130;21.218;2023-12-07T01:06:36;55.40;;;19.47;;
78989;SDS011;68390;52.130;21.218;2023-12-07T01:09:02;52.90;;;18.65;;
78989;SDS011;68390;52.130;21.218;2023-12-07T01:11:28;57.83;;;19.42;;
78989;SDS011;68390;52.130;21.218;2023-12-07T01:13:54;51.88;;;19.02;;
78989;SDS011;68390;52.130;21.218;2023-12-07T01:16:19;50.50;;;18.05;;
78989;SDS011;68390;52.130;21.218;2023-12-07T01:18:45;47.40;;;17.17;;
78989;SDS011;68390;52.130;21.218;2023-12-07T01:21:10;50.80;;;17.52;;
78989;SDS011;68390;52.130;21.218;2023-12-07T01:23:35;49.78;;;16.35;;
78989;SDS011;68390;52.130;21.218;2023-12-07T01:26:01;54.20;;;18.10;;
78989;SDS011;68390;52.130;21.218;2023-12-07T01:28:27;55.42;;;15.98;;
78989;SDS011;68390;52.130;21.218;2023-12-07T01:30:53;54.15;;;17.77;;
78989;SDS011;68390;52.130;21.218;2023-12-07T01:33:18;58.25;;;20.17;;
78989;SDS011;68390;52.130;21.218;2023-12-07T01:35:44;62.67;;;19.90;;
78989;SDS011;68390;52.130;21.218;2023-12-07T01:38:09;57.63;;;18.83;;
78989;SDS011;68390;52.130;21.218;2023-12-07T01:40:34;72.65;;;21.55;;
78989;SDS011;68390;52.130;21.218;2023-12-07T01:43:00;69.33;;;22.53;;
78989;SDS011;68390;52.130;21.218;2023-12-07T01:45:25;59.55;;;18.70;;
78989;SDS011;68390;52.130;21.218;2023-12-07T01:47:51;62.17;;;19.90;;
78989;SDS011;68390;52.130;21.218;2023-12-07T01:50:18;68.60;;;22.42;;
78989;SDS011;68390;52.130;21.218;2023-12-07T01:52:48;51.35;;;16.25;;
78989;SDS011;68390;52.130;21.218;2023-12-07T01:55:17;62.00;;;19.17;;
78989;SDS011;68390;52.130;21.218;2023-12-07T01:57:43;59.25;;;19.02;;
78989;SDS011;68390;52.130;21.218;2023-12-07T02:00:10;51.30;;;17.25;;
78989;SDS011;68390;52.130;21.218;2023-12-07T02:02:37;49.22;;;16.40;;
78989;SDS011;68390;52.130;21.218;2023-12-07T02:05:03;52.17;;;17.25;;
78989;SDS011;68390;52.130;21.218;2023-12-07T02:07:29;50.13;;;17.17;;
78989;SDS011;68390;52.130;21.218;2023-12-07T02:09:56;57.47;;;17.35;;
78989;SDS011;68390;52.130;21.218;2023-12-07T02:12:23;64.13;;;20.30;;
78989;SDS011;68390;52.130;21.218;2023-12-07T02:14:49;60.78;;;16.65;;
78989;SDS011;68390;52.130;21.218;2023-12-07T02:22:34;46.75;;;17.52;;
78989;SDS011;68390;52.130;21.218;2023-12-07T02:25:23;53.13;;;17.98;;
78989;SDS011;68390;52.130;21.218;2023-12-07T02:27:54;52.90;;;18.60;;
78989;SDS011;68390;52.130;21.218;2023-12-07T02:30:19;62.90;;;19.23;;
78989;SDS011;68390;52.130;21.218;2023-12-07T02:32:45;54.35;;;18.23;;
78989;SDS011;68390;52.130;21.218;2023-12-07T02:35:11;54.05;;;16.75;;
78989;SDS011;68390;52.130;21.218;2023-12-07T02:40:23;54.35;;;18.92;;
78989;SDS011;68390;52.130;21.218;2023-12-07T02:42:50;51.88;;;17.10;;
78989;SDS011;68390;52.130;21.218;2023-12-07T02:45:17;59.30;;;18.25;;
78989;SDS011;68390;52.130;21.218;2023-12-07T02:47:43;52.15;;;17.52;;
78989;SDS011;68390;52.130;21.218;2023-12-07T02:50:10;64.43;;;18.40;;
78989;SDS011;68390;52.130;21.218;2023-12-07T02:52:36;52.65;;;17.50;;
78989;SDS011;68390;52.130;21.218;2023-12-07T02:55:02;52.60;;;17.15;;
78989;SDS011;68390;52.130;21.218;2023-12-07T02:57:28;50.03;;;16.98;;
78989;SDS011;68390;52.130;21.218;2023-12-07T02:59:54;53.53;;;18.15;;
78989;SDS011;68390;52.130;21.218;2023-12-07T03:02:20;56.88;;;19.08;;
78989;SDS011;68390;52.130;21.218;2023-12-07T03:04:45;55.92;;;18.52;;
78989;SDS011;68390;52.130;21.218;2023-12-07T03:07:11;45.37;;;14.80;;
78989;SDS011;68390;52.130;21.218;2023-12-07T03:09:36;45.47;;;18.02;;
78989;SDS011;68390;52.130;21.218;2023-12-07T03:12:01;51.63;;;17.98;;
78989;SDS011;68390;52.130;21.218;2023-12-07T03:14:27;52.17;;;19.83;;
78989;SDS011;68390;52.130;21.218;2023-12-07T03:16:52;48.55;;;16.95;;
78989;SDS011;68390;52.130;21.218;2023-12-07T03:19:18;49.72;;;15.90;;
78989;SDS011;68390;52.130;21.218;2023-12-07T03:21:43;52.10;;;17.50;;
78989;SDS011;68390;52.130;21.218;2023-12-07T03:24:09;43.85;;;15.23;;
78989;SDS011;68390;52.130;21.218;2023-12-07T03:26:35;44.20;;;16.52;;
78989;SDS011;68390;52.130;21.218;2023-12-07T03:29:01;41.17;;;15.80;;
78989;SDS011;68390;52.130;21.218;2023-12-07T03:31:27;51.60;;;16.57;;
78989;SDS011;68390;52.130;21.218;2023-12-07T03:33:53;51.97;;;16.45;;
78989;SDS011;68390;52.130;21.218;2023-12-07T03:36:18;45.20;;;17.23;;
78989;SDS011;68390;52.130;21.218;2023-12-07T03:38:44;47.13;;;16.47;;
78989;SDS011;68390;52.130;21.218;2023-12-07T03:41:09;41.60;;;16.10;;
78989;SDS011;68390;52.130;21.218;2023-12-07T03:43:34;41.38;;;16.20;;
78989;SDS011;68390;52.130;21.218;2023-12-07T03:46:03;47.97;;;16.60;;
78989;SDS011;68390;52.130;21.218;2023-12-07T03:48:29;51.75;;;16.23;;
78989;SDS011;68390;52.130;21.218;2023-12-07T03:50:54;49.85;;;17.20;;
78989;SDS011;68390;52.130;21.218;2023-12-07T03:53:20;47.65;;;16.02;;
78989;SDS011;68390;52.130;21.218;2023-12-07T03:55:45;42.50;;;15.50;;
78989;SDS011;68390;52.130;21.218;2023-12-07T03:58:10;47.03;;;16.17;;
78989;SDS011;68390;52.130;21.218;2023-12-07T04:00:38;46.13;;;16.65;;
78989;SDS011;68390;52.130;21.218;2023-12-07T04:03:03;47.45;;;17.83;;
78989;SDS011;68390;52.130;21.218;2023-12-07T04:05:29;42.70;;;15.87;;
78989;SDS011;68390;52.130;21.218;2023-12-07T04:07:54;42.10;;;16.03;;
78989;SDS011;68390;52.130;21.218;2023-12-07T04:10:39;38.97;;;14.25;;
78989;SDS011;68390;52.130;21.218;2023-12-07T04:13:05;41.80;;;15.20;;
78989;SDS011;68390;52.130;21.218;2023-12-07T04:15:31;46.35;;;16.88;;
78989;SDS011;68390;52.130;21.218;2023-12-07T04:17:56;39.72;;;14.05;;
78989;SDS011;68390;52.130;21.218;2023-12-07T04:20:22;39.78;;;14.35;;
78989;SDS011;68390;52.130;21.218;2023-12-07T04:22:47;36.97;;;15.40;;
78989;SDS011;68390;52.130;21.218;2023-12-07T04:25:12;41.70;;;14.98;;
78989;SDS011;68390;52.130;21.218;2023-12-07T04:27:38;35.25;;;14.15;;
78989;SDS011;68390;52.130;21.218;2023-12-07T04:30:03;37.60;;;15.27;;
78989;SDS011;68390;52.130;21.218;2023-12-07T04:32:29;35.00;;;14.48;;
78989;SDS011;68390;52.130;21.218;2023-12-07T04:34:55;44.27;;;14.13;;
78989;SDS011;68390;52.130;21.218;2023-12-07T04:37:20;40.05;;;14.70;;
78989;SDS011;68390;52.130;21.218;2023-12-07T04:39:46;37.20;;;14.55;;
78989;SDS011;68390;52.130;21.218;2023-12-07T04:42:11;33.13;;;12.50;;
78989;SDS011;68390;52.130;21.218;2023-12-07T04:44:36;34.10;;;14.93;;
78989;SDS011;68390;52.130;21.218;2023-12-07T04:47:02;36.97;;;13.93;;
78989;SDS011;68390;52.130;21.218;2023-12-07T04:49:27;34.42;;;14.80;;
78989;SDS011;68390;52.130;21.218;2023-12-07T04:51:53;37.60;;;15.30;;
78989;SDS011;68390;52.130;21.218;2023-12-07T04:54:18;33.33;;;14.00;;
78989;SDS011;68390;52.130;21.218;2023-12-07T04:56:44;29.35;;;13.90;;
78989;SDS011;68390;52.130;21.218;2023-12-07T04:59:10;29.48;;;13.32;;
78989;SDS011;68390;52.130;21.218;2023-12-07T05:01:35;33.63;;;14.00;;
78989;SDS011;68390;52.130;21.218;2023-12-07T05:04:02;35.15;;;14.07;;
78989;SDS011;68390;52.130;21.218;2023-12-07T05:06:33;37.15;;;13.77;;
78989;SDS011;68390;52.130;21.218;2023-12-07T05:08:59;31.65;;;13.23;;
78989;SDS011;68390;52.130;21.218;2023-12-07T05:11:24;33.10;;;14.20;;
78989;SDS011;68390;52.130;21.218;2023-12-07T05:13:50;35.67;;;14.43;;
78989;SDS011;68390;52.130;21.218;2023-12-07T05:16:15;28.95;;;12.25;;
78989;SDS011;68390;52.130;21.218;2023-12-07T05:18:40;34.67;;;12.85;;
78989;SDS011;68390;52.130;21.218;2023-12-07T05:21:06;32.80;;;13.00;;
78989;SDS011;68390;52.130;21.218;2023-12-07T05:23:32;35.97;;;13.90;;
78989;SDS011;68390;52.130;21.218;2023-12-07T05:25:57;29.33;;;12.95;;
78989;SDS011;68390;52.130;21.218;2023-12-07T05:28:23;29.45;;;12.95;;
78989;SDS011;68390;52.130;21.218;2023-12-07T05:30:48;30.80;;;13.10;;
78989;SDS011;68390;52.130;21.218;2023-12-07T05:33:14;28.98;;;11.30;;
78989;SDS011;68390;52.130;21.218;2023-12-07T05:35:40;30.63;;;13.20;;
78989;SDS011;68390;52.130;21.218;2023-12-07T05:38:05;31.70;;;12.57;;
78989;SDS011;68390;52.130;21.218;2023-12-07T05:40:30;32.77;;;14.30;;
78989;SDS011;68390;52.130;21.218;2023-12-07T05:42:56;31.17;;;13.88;;
78989;SDS011;68390;52.130;21.218;2023-12-07T05:45:21;35.57;;;14.67;;
78989;SDS011;68390;52.130;21.218;2023-12-07T05:47:47;30.67;;;12.18;;
78989;SDS011;68390;52.130;21.218;2023-12-07T05:50:12;35.95;;;13.90;;
78989;SDS011;68390;52.130;21.218;2023-12-07T05:52:38;32.22;;;13.43;;
78989;SDS011;68390;52.130;21.218;2023-12-07T05:55:04;34.83;;;14.07;;
78989;SDS011;68390;52.130;21.218;2023-12-07T05:57:30;31.90;;;14.18;;
78989;SDS011;68390;52.130;21.218;2023-12-07T05:59:56;34.85;;;14.55;;
78989;SDS011;68390;52.130;21.218;2023-12-07T06:02:21;32.70;;;14.20;;
78989;SDS011;68390;52.130;21.218;2023-12-07T06:04:47;33.97;;;13.43;;
78989;SDS011;68390;52.130;21.218;2023-12-07T06:07:12;28.48;;;12.98;;
78989;SDS011;68390;52.130;21.218;2023-12-07T06:09:37;34.35;;;14.20;;
78989;SDS011;68390;52.130;21.218;2023-12-07T06:12:03;30.23;;;13.52;;
78989;SDS011;68390;52.130;21.218;2023-12-07T06:14:29;33.05;;;14.45;;
78989;SDS011;68390;52.130;21.218;2023-12-07T06:16:54;33.95;;;14.48;;
78989;SDS011;68390;52.130;21.218;2023-12-07T06:19:20;29.30;;;13.50;;
78989;SDS011;68390;52.130;21.218;2023-12-07T06:21:46;32.95;;;14.02;;
78989;SDS011;68390;52.130;21.218;2023-12-07T06:24:11;29.50;;;13.52;;
78989;SDS011;68390;52.130;21.218;2023-12-07T06:26:38;34.22;;;14.23;;
78989;SDS011;68390;52.130;21.218;2023-12-07T06:29:04;31.60;;;13.35;;
78989;SDS011;68390;52.130;21.218;2023-12-07T06:31:29;31.77;;;13.80;;
78989;SDS011;68390;52.130;21.218;2023-12-07T06:33:54;33.50;;;14.23;;
78989;SDS011;68390;52.130;21.218;2023-12-07T06:36:20;34.17;;;14.43;;
78989;SDS011;68390;52.130;21.218;2023-12-07T06:38:46;30.95;;;13.07;;
78989;SDS011;68390;52.130;21.218;2023-12-07T06:41:12;35.42;;;14.35;;
78989;SDS011;68390;52.130;21.218;2023-12-07T06:43:38;27.55;;;12.57;;
78989;SDS011;68390;52.130;21.218;2023-12-07T06:46:03;31.23;;;14.13;;
78989;SDS011;68390;52.130;21.218;2023-12-07T06:48:29;28.30;;;13.05;;
78989;SDS011;68390;52.130;21.218;2023-12-07T06:50:54;33.65;;;15.63;;
78989;SDS011;68390;52.130;21.218;2023-12-07T06:53:19;31.60;;;14.63;;
78989;SDS011;68390;52.130;21.218;2023-12-07T06:55:45;36.40;;;15.05;;
78989;SDS011;68390;52.130;21.218;2023-12-07T06:58:10;32.58;;;14.00;;
78989;SDS011;68390;52.130;21.218;2023-12-07T07:00:35;36.73;;;15.03;;
78989;SDS011;68390;52.130;21.218;2023-12-07T07:03:01;35.20;;;16.17;;
78989;SDS011;68390;52.130;21.218;2023-12-07T07:05:27;35.47;;;15.48;;
78989;SDS011;68390;52.130;21.218;2023-12-07T07:07:52;37.20;;;14.65;;
78989;SDS011;68390;52.130;21.218;2023-12-07T07:10:18;34.28;;;16.02;;
78989;SDS011;68390;52.130;21.218;2023-12-07T07:12:43;35.58;;;15.27;;
78989;SDS011;68390;52.130;21.218;2023-12-07T07:15:09;35.92;;;16.45;;
78989;SDS011;68390;52.130;21.218;2023-12-07T07:17:34;36.35;;;15.35;;
78989;SDS011;68390;52.130;21.218;2023-12-07T07:20:00;34.33;;;15.73;;
78989;SDS011;68390;52.130;21.218;2023-12-07T07:22:25;35.00;;;15.25;;
78989;SDS011;68390;52.130;21.218;2023-12-07T07:24:50;36.00;;;15.03;;
78989;SDS011;68390;52.130;21.218;2023-12-07T07:27:17;37.08;;;15.60;;
78989;SDS011;68390;52.130;21.218;2023-12-07T07:29:42;39.63;;;17.20;;
78989;SDS011;68390;52.130;21.218;2023-12-07T07:32:08;38.25;;;16.17;;
78989;SDS011;68390;52.130;21.218;2023-12-07T07:34:33;35.33;;;15.30;;
78989;SDS011;68390;52.130;21.218;2023-12-07T07:36:59;26.80;;;12.93;;
78989;SDS011;68390;52.130;21.218;2023-12-07T07:39:24;36.90;;;15.90;;
78989;SDS011;68390;52.130;21.218;2023-12-07T07:41:50;37.93;;;16.17;;
78989;SDS011;68390;52.130;21.218;2023-12-07T07:44:15;36.97;;;15.70;;
78989;SDS011;68390;52.130;21.218;2023-12-07T07:46:41;38.85;;;17.20;;
78989;SDS011;68390;52.130;21.218;2023-12-07T07:49:07;38.60;;;16.52;;
78989;SDS011;68390;52.130;21.218;2023-12-07T07:51:32;36.05;;;15.70;;
78989;SDS011;68390;52.130;21.218;2023-12-07T07:54:01;34.85;;;15.98;;
78989;SDS011;68390;52.130;21.218;2023-12-07T07:56:26;38.05;;;16.75;;
78989;SDS011;68390;52.130;21.218;2023-12-07T07:58:52;34.67;;;17.05;;
78989;SDS011;68390;52.130;21.218;2023-12-07T08:01:17;36.47;;;16.70;;
78989;SDS011;68390;52.130;21.218;2023-12-07T08:03:42;37.13;;;16.95;;
78989;SDS011;68390;52.130;21.218;2023-12-07T08:06:08;38.47;;;16.17;;
78989;SDS011;68390;52.130;21.218;2023-12-07T08:08:33;38.20;;;17.67;;
78989;SDS011;68390;52.130;21.218;2023-12-07T08:10:59;37.33;;;15.57;;
78989;SDS011;68390;52.130;21.218;2023-12-07T08:13:26;34.30;;;14.40;;
78989;SDS011;68390;52.130;21.218;2023-12-07T08:15:52;37.47;;;16.13;;
78989;SDS011;68390;52.130;21.218;2023-12-07T08:18:18;39.85;;;17.33;;
78989;SDS011;68390;52.130;21.218;2023-12-07T08:20:43;35.58;;;14.70;;
78989;SDS011;68390;52.130;21.218;2023-12-07T08:23:09;40.03;;;17.02;;
78989;SDS011;68390;52.130;21.218;2023-12-07T08:25:35;37.85;;;17.35;;
78989;SDS011;68390;52.130;21.218;2023-12-07T08:28:03;40.95;;;17.88;;
78989;SDS011;68390;52.130;21.218;2023-12-07T08:30:28;41.55;;;17.25;;
78989;SDS011;68390;52.130;21.218;2023-12-07T08:32:54;36.03;;;16.00;;
78989;SDS011;68390;52.130;21.218;2023-12-07T08:35:19;40.83;;;17.02;;
78989;SDS011;68390;52.130;21.218;2023-12-07T08:37:45;35.37;;;15.27;;
78989;SDS011;68390;52.130;21.218;2023-12-07T08:40:10;39.67;;;16.33;;
78989;SDS011;68390;52.130;21.218;2023-12-07T08:42:36;36.95;;;16.38;;
78989;SDS011;68390;52.130;21.218;2023-12-07T08:45:02;37.40;;;17.93;;
78989;SDS011;68390;52.130;21.218;2023-12-07T08:47:27;36.03;;;16.90;;
78989;SDS011;68390;52.130;21.218;2023-12-07T08:49:55;40.20;;;17.23;;
78989;SDS011;68390;52.130;21.218;2023-12-07T08:52:20;43.47;;;17.83;;
78989;SDS011;68390;52.130;21.218;2023-12-07T08:54:46;40.70;;;16.27;;
78989;SDS011;68390;52.130;21.218;2023-12-07T08:57:11;35.70;;;16.63;;
78989;SDS011;68390;52.130;21.218;2023-12-07T08:59:37;40.72;;;17.33;;
78989;SDS011;68390;52.130;21.218;2023-12-07T09:02:02;36.45;;;16.40;;
78989;SDS011;68390;52.130;21.218;2023-12-07T09:04:28;38.00;;;16.83;;
78989;SDS011;68390;52.130;21.218;2023-12-07T09:06:53;39.28;;;17.25;;
78989;SDS011;68390;52.130;21.218;2023-12-07T09:09:19;39.10;;;16.45;;
78989;SDS011;68390;52.130;21.218;2023-12-07T09:11:45;38.35;;;15.95;;
78989;SDS011;68390;52.130;21.218;2023-12-07T09:14:10;36.78;;;17.45;;
78989;SDS011;68390;52.130;21.218;2023-12-07T09:16:42;39.20;;;17.15;;
78989;SDS011;68390;52.130;21.218;2023-12-07T09:19:12;38.72;;;17.70;;
78989;SDS011;68390;52.130;21.218;2023-12-07T09:21:39;39.03;;;17.63;;
78989;SDS011;68390;52.130;21.218;2023-12-07T09:24:07;41.80;;;17.17;;
78989;SDS011;68390;52.130;21.218;2023-12-07T09:26:32;38.42;;;18.17;;
78989;SDS011;68390;52.130;21.218;2023-12-07T09:28:58;37.33;;;16.60;;
78989;SDS011;68390;52.130;21.218;2023-12-07T09:31:23;37.28;;;15.90;;
78989;SDS011;68390;52.130;21.218;2023-12-07T09:33:49;33.33;;;15.85;;
78989;SDS011;68390;52.130;21.218;2023-12-07T09:36:17;38.30;;;17.42;;
78989;SDS011;68390;52.130;21.218;2023-12-07T09:38:43;40.13;;;17.73;;
78989;SDS011;68390;52.130;21.218;2023-12-07T09:41:09;40.33;;;18.58;;
78989;SDS011;68390;52.130;21.218;2023-12-07T09:43:35;37.42;;;17.20;;
78989;SDS011;68390;52.130;21.218;2023-12-07T09:46:01;35.30;;;16.90;;
78989;SDS011;68390;52.130;21.218;2023-12-07T09:48:26;43.72;;;18.33;;
78989;SDS011;68390;52.130;21.218;2023-12-07T09:50:54;37.15;;;16.77;;
78989;SDS011;68390;52.130;21.218;2023-12-07T09:53:21;41.25;;;19.23;;
78989;SDS011;68390;52.130;21.218;2023-12-07T09:55:46;36.50;;;16.15;;
78989;SDS011;68390;52.130;21.218;2023-12-07T09:58:12;35.63;;;16.80;;
78989;SDS011;68390;52.130;21.218;2023-12-07T10:00:38;38.67;;;16.95;;
78989;SDS011;68390;52.130;21.218;2023-12-07T10:03:04;40.42;;;18.15;;
78989;SDS011;68390;52.130;21.218;2023-12-07T10:05:33;38.38;;;16.80;;
78989;SDS011;68390;52.130;21.218;2023-12-07T10:07:59;33.63;;;16.25;;
78989;SDS011;68390;52.130;21.218;2023-12-07T10:10:24;36.15;;;16.58;;
78989;SDS011;68390;52.130;21.218;2023-12-07T10:12:51;38.65;;;17.85;;
78989;SDS011;68390;52.130;21.218;2023-12-07T10:15:18;40.63;;;18.67;;
78989;SDS011;68390;52.130;21.218;2023-12-07T10:20:24;36.80;;;16.50;;
78989;SDS011;68390;52.130;21.218;2023-12-07T10:23:03;36.50;;;17.42;;
78989;SDS011;68390;52.130;21.218;2023-12-07T10:25:30;41.20;;;17.00;;
78989;SDS011;68390;52.130;21.218;2023-12-07T10:27:56;37.83;;;17.60;;
78989;SDS011;68390;52.130;21.218;2023-12-07T10:30:21;41.57;;;18.77;;
78989;SDS011;68390;52.130;21.218;2023-12-07T10:32:50;35.92;;;17.30;;
78989;SDS011;68390;52.130;21.218;2023-12-07T10:35:16;40.55;;;18.08;;
78989;SDS011;68390;52.130;21.218;2023-12-07T10:37:41;40.40;;;17.92;;
78989;SDS011;68390;52.130;21.218;2023-12-07T10:40:07;39.75;;;18.75;;
78989;SDS011;68390;52.130;21.218;2023-12-07T10:42:33;40.75;;;17.60;;
78989;SDS011;68390;52.130;21.218;2023-12-07T10:45:03;35.47;;;17.38;;
78989;SDS011;68390;52.130;21.218;2023-12-07T10:47:30;37.83;;;17.58;;
78989;SDS011;68390;52.130;21.218;2023-12-07T10:49:57;38.85;;;18.42;;
78989;SDS011;68390;52.130;21.218;2023-12-07T10:52:25;39.10;;;17.77;;
78989;SDS011;68390;52.130;21.218;2023-12-07T10:55:02;41.13;;;19.08;;
78989;SDS011;68390;52.130;21.218;2023-12-07T10:57:30;37.17;;;17.42;;
78989;SDS011;68390;52.130;21.218;2023-12-07T10:59:58;42.13;;;18.73;;
78989;SDS011;68390;52.130;21.218;2023-12-07T11:02:25;40.72;;;18.75;;
78989;SDS011;68390;52.130;21.218;2023-12-07T11:04:53;36.47;;;17.23;;
78989;SDS011;68390;52.130;21.218;2023-12-07T11:07:22;42.75;;;20.27;;
78989;SDS011;68390;52.130;21.218;2023-12-07T11:09:57;42.53;;;20.42;;
78989;SDS011;68390;52.130;21.218;2023-12-07T11:12:29;44.25;;;21.13;;
78989;SDS011;68390;52.130;21.218;2023-12-07T11:15:00;45.50;;;21.42;;
78989;SDS011;68390;52.130;21.218;2023-12-07T11:17:26;45.58;;;20.50;;
78989;SDS011;68390;52.130;21.218;2023-12-07T11:19:52;45.13;;;20.73;;
78989;SDS011;68390;52.130;21.218;2023-12-07T11:22:17;40.35;;;18.27;;
78989;SDS011;68390;52.130;21.218;2023-12-07T11:24:52;41.60;;;18.55;;
78989;SDS011;68390;52.130;21.218;2023-12-07T11:27:19;39.70;;;18.42;;
78989;SDS011;68390;52.130;21.218;2023-12-07T11:29:46;38.33;;;18.67;;
78989;SDS011;68390;52.130;21.218;2023-12-07T11:32:13;39.70;;;17.80;;
78989;SDS011;68390;52.130;21.218;2023-12-07T11:34:40;41.97;;;19.13;;
78989;SDS011;68390;52.130;21.218;2023-12-07T11:37:06;39.30;;;19.23;;
78989;SDS011;68390;52.130;21.218;2023-12-07T11:39:36;43.67;;;19.17;;
78989;SDS011;68390;52.130;21.218;2023-12-07T11:44:38;41.80;;;19.33;;
78989;SDS011;68390;52.130;21.218;2023-12-07T11:47:06;39.65;;;19.48;;
78989;SDS011;68390;52.130;21.218;2023-12-07T11:49:32;42.60;;;19.40;;
78989;SDS011;68390;52.130;21.218;2023-12-07T11:51:58;40.03;;;19.77;;
78989;SDS011;68390;52.130;21.218;2023-12-07T11:54:37;44.38;;;20.80;;
78989;SDS011;68390;52.130;21.218;2023-12-07T11:57:02;39.47;;;19.00;;
78989;SDS011;68390;52.130;21.218;2023-12-07T11:59:28;38.83;;;19.65;;
78989;SDS011;68390;52.130;21.218;2023-12-07T12:01:54;44.70;;;19.65;;
78989;SDS011;68390;52.130;21.218;2023-12-07T12:04:21;42.47;;;18.73;;
78989;SDS011;68390;52.130;21.218;2023-12-07T12:06:47;40.03;;;18.75;;
78989;SDS011;68390;52.130;21.218;2023-12-07T12:09:12;47.70;;;19.95;;
78989;SDS011;68390;52.130;21.218;2023-12-07T12:11:47;41.33;;;20.08;;
78989;SDS011;68390;52.130;21.218;2023-12-07T12:14:16;45.30;;;19.00;;
78989;SDS011;68390;52.130;21.218;2023-12-07T12:16:45;46.38;;;20.23;;
78989;SDS011;68390;52.130;21.218;2023-12-07T12:19:11;40.42;;;19.70;;
78989;SDS011;68390;52.130;21.218;2023-12-07T12:21:39;42.17;;;19.85;;
78989;SDS011;68390;52.130;21.218;2023-12-07T12:24:05;48.92;;;20.95;;
78989;SDS011;68390;52.130;21.218;2023-12-07T12:29:02;41.53;;;21.00;;
78989;SDS011;68390;52.130;21.218;2023-12-07T12:31:28;46.92;;;19.65;;
78989;SDS011;68390;52.130;21.218;2023-12-07T12:33:54;42.13;;;20.52;;
78989;SDS011;68390;52.130;21.218;2023-12-07T12:36:20;42.47;;;19.52;;
78989;SDS011;68390;52.130;21.218;2023-12-07T12:38:48;47.90;;;21.70;;
78989;SDS011;68390;52.130;21.218;2023-12-07T12:41:18;45.42;;;19.27;;
78989;SDS011;68390;52.130;21.218;2023-12-07T12:43:44;45.70;;;21.08;;
78989;SDS011;68390;52.130;21.218;2023-12-07T12:46:10;48.50;;;20.63;;
78989;SDS011;68390;52.130;21.218;2023-12-07T12:48:36;43.85;;;20.38;;
78989;SDS011;68390;52.130;21.218;2023-12-07T12:51:08;39.00;;;19.33;;
78989;SDS011;68390;52.130;21.218;2023-12-07T12:53:46;39.22;;;19.55;;
78989;SDS011;68390;52.130;21.218;2023-12-07T12:56:14;47.28;;;20.80;;
78989;SDS011;68390;52.130;21.218;2023-12-07T12:58:39;41.58;;;18.88;;
78989;SDS011;68390;52.130;21.218;2023-12-07T13:01:05;44.22;;;19.63;;
78989;SDS011;68390;52.130;21.218;2023-12-07T13:03:31;49.20;;;21.90;;
78989;SDS011;68390;52.130;21.218;2023-12-07T13:05:57;42.15;;;19.80;;
78989;SDS011;68390;52.130;21.218;2023-12-07T13:08:23;40.83;;;20.27;;
78989;SDS011;68390;52.130;21.218;2023-12-07T13:10:48;46.57;;;20.73;;
78989;SDS011;68390;52.130;21.218;2023-12-07T13:13:15;46.13;;;20.58;;
78989;SDS011;68390;52.130;21.218;2023-12-07T13:15:41;36.83;;;18.17;;
78989;SDS011;68390;52.130;21.218;2023-12-07T13:18:06;50.80;;;22.85;;
78989;SDS011;68390;52.130;21.218;2023-12-07T13:20:32;45.13;;;20.40;;
78989;SDS011;68390;52.130;21.218;2023-12-07T13:22:57;39.08;;;18.73;;
78989;SDS011;68390;52.130;21.218;2023-12-07T13:25:23;42.63;;;19.60;;
78989;SDS011;68390;52.130;21.218;2023-12-07T13:27:48;42.45;;;20.88;;
78989;SDS011;68390;52.130;21.218;2023-12-07T13:30:13;42.90;;;20.80;;
78989;SDS011;68390;52.130;21.218;2023-12-07T13:32:39;39.78;;;19.20;;
78989;SDS011;68390;52.130;21.218;2023-12-07T13:35:05;51.53;;;22.13;;
78989;SDS011;68390;52.130;21.218;2023-12-07T13:37:31;50.55;;;22.58;;
78989;SDS011;68390;52.130;21.218;2023-12-07T13:39:57;55.88;;;26.05;;
78989;SDS011;68390;52.130;21.218;2023-12-07T13:42:25;53.95;;;25.52;;
78989;SDS011;68390;52.130;21.218;2023-12-07T13:44:54;58.03;;;25.00;;
78989;SDS011;68390;52.130;21.218;2023-12-07T13:47:22;58.90;;;26.08;;
78989;SDS011;68390;52.130;21.218;2023-12-07T13:49:56;53.50;;;23.75;;
78989;SDS011;68390;52.130;21.218;2023-12-07T13:52:23;49.35;;;24.00;;
78989;SDS011;68390;52.130;21.218;2023-12-07T13:54:49;44.70;;;21.67;;
78989;SDS011;68390;52.130;21.218;2023-12-07T13:57:15;48.03;;;21.52;;
78989;SDS011;68390;52.130;21.218;2023-12-07T13:59:40;49.15;;;22.95;;
78989;SDS011;68390;52.130;21.218;2023-12-07T14:02:06;47.40;;;21.37;;
78989;SDS011;68390;52.130;21.218;2023-12-07T14:04:31;40.63;;;19.85;;
78989;SDS011;68390;52.130;21.218;2023-12-07T14:09:52;44.22;;;19.15;;
78989;SDS011;68390;52.130;21.218;2023-12-07T14:12:18;47.40;;;20.73;;
78989;SDS011;68390;52.130;21.218;2023-12-07T14:14:45;48.58;;;21.83;;
78989;SDS011;68390;52.130;21.218;2023-12-07T14:17:12;47.20;;;21.60;;
78989;SDS011;68390;52.130;21.218;2023-12-07T14:19:38;47.40;;;21.15;;
78989;SDS011;68390;52.130;21.218;2023-12-07T14:22:04;48.95;;;22.98;;